Airfield :
LOGIN :

Register | Disclaimer

   EN    FR    IT 

 










Legend :    VFR   Marginal VFR   IFR   Intensive IFR   Very Intensive IFR
Visi :
Ceiling :
>= 8 km
>= 3000ft
5 to 8 km
1000 to 3000 ft
1500m to 5 km
500 to 1000 ft
800 to 1500m
200 to 500 ft
< 800m
< 200 ft
Symbols :   Thunderstorms  Fog  Heavy snow  Heavy precipitations  Wind > 20 kt
SIGMETs :     Misc.  Thunderstorms  Icing  Turbulence  Mountain Waves  Volcanic Ashes







- Airport Elevation : 17 ft
- IATA code : GRQ


EHGG - Groningen Eelde

CURRENT METAR :
  • 190525Z AUTO 05012KT 020V080 9999 FEW016 OVC028 06/03 Q1026 TEMPO 7000 -SHRA BKN012 FEW018TCU

EXPIRED METARs :
  • 190455Z AUTO 04011KT 010V080 9999 BKN029 OVC033 06/03 Q1026 NOSIG
  • 190425Z AUTO 05013KT 010V070 9999 OVC028 06/03 Q1026 NOSIG
  • 190355Z AUTO 05013KT 020V080 9999 OVC026 05/03 Q1026 NOSIG
  • 190325Z AUTO 05010KT 010V070 9999 FEW014 OVC022 05/03 Q1027
  • 190255Z AUTO 04011KT 010V070 9999 SCT014 BKN024 OVC027 05/03 Q1027

TAF TAF EHGG
Valid from the 19 at 06:00 until the 20 at 12:00 UTC


190513Z 1906/2012 05011KT 9999 BKN025
PROB30
TEMPO 1906/1917 7000 -RADZ -SHRA BKN012 FEW020TCU
BECMG 1909/1912 08016KT
PROB40
TEMPO 2008/2012 09017G27KT BKN012
No reported NOTAMs for that airfield.



MET'MAP, your aeronautical weather chart ! - Copyright ORBIFLY December 2007 - Disclaimer

ORBIFLY MET'MAP TEAM :

Programming & Development : Alexandra Zaïnal
Concept & Development : Baudouin d'Aumeries
Co-Development & Prog : Marc-Olivier Méhu
Technical & hardware support : Manuel Goepfert

Contact : metmap@orbifly.com




SOURCES & CREDITS :

   NOAA